Alatyr, Russia
Current Conditions -  °F | °C
As of 8:00 PM on Monday 24 Nov 2014 (Local Time) from UWLW Reporting Station
Clear Clear  
Wind Chill:   Ceiling: Unl
Heat Index:   Visibility: 3mi
Dew Point:   Wind: 0mph
Humidity: 85%   Direction: NA
Pressure: 30.86"   Gusts: NA
Location:  54.85°N, 46.6°E
Report Text: UWLW 241700Z 00000MPS P5000 SKC M15/M17 Q1045 20CLRD60 NOSIGRMK QFE777
Loading
Personal Weather Stations






























Interactive Weather Map New forecast layout! Learn more

10-Day Weather Forecast

Advertisements
Track Severe Weather on mobile